Crystal Island — 3EZJ3 — position and weather

sailwx.info

Track history (hours):
 
Tides and Currents Weather Stations Pressure Air Temp Water Temp Dewpoint Dewpoint Depression Visibility Wind Speed Wind Dir Waves Ship Positions

Crystal Island

Last reported at 2014-Oct-14 02:33 UTC. Time now 2014-Oct-22 04:50 UTC.
Position N 34°47' E 119°37'.
Warning: this ship's position is 8 days out of date.

Length 169 m; draft 9.2 m.

Type: Cargo ship. MMSI: 372562000.

Date/timePositionNaut miles runAvg speedWind from/ knotsBaromVisibWave heightAir tempDewpointWater temp
2014-Oct-14 02:33N 34°47' E 119°37'8 8.4
2014-Oct-14 01:33N 34°45' E 119°27'3 2.6
2014-Oct-14 00:33N 34°45' E 119°24'0 0.0
2014-Oct-13 23:27N 34°45' E 119°24'0 0.0
2014-Oct-13 22:33N 34°45' E 119°24'0 0.0
2014-Oct-13 21:33N 34°45' E 119°24'0 0.0
2014-Oct-13 20:33N 34°45' E 119°24'0 0.0
2014-Oct-13 19:33N 34°45' E 119°24'0 0.0
2014-Oct-13 18:33N 34°45' E 119°24'0 0.0
2014-Oct-13 17:33N 34°45' E 119°24'0 0.0
2014-Oct-13 16:33N 34°45' E 119°24'0 0.0
2014-Oct-13 15:33N 34°45' E 119°24'0 0.0
2014-Oct-13 14:33N 34°45' E 119°24'0 0.0
2014-Oct-13 13:33N 34°45' E 119°24'0 0.0
2014-Oct-13 12:33N 34°45' E 119°24'0 0.0
2014-Oct-13 11:27N 34°45' E 119°24'0 0.0
2014-Oct-13 10:33N 34°45' E 119°24'0 0.0
2014-Oct-13 09:33N 34°45' E 119°24'0 0.0
2014-Oct-13 08:33N 34°45' E 119°24'0 0.0
2014-Oct-13 07:33N 34°45' E 119°24'0 0.0
2014-Oct-13 06:33N 34°45' E 119°24'0 0.0
2014-Oct-13 05:27N 34°45' E 119°24'0 0.0
2014-Oct-13 04:33N 34°45' E 119°24'0 0.0
2014-Oct-13 03:33N 34°45' E 119°24'0 0.0
2014-Oct-13 02:33N 34°45' E 119°24'0 0.0
2014-Oct-13 01:33N 34°45' E 119°24'0 0.0
2014-Oct-13 00:33N 34°45' E 119°24'0 0.0
2014-Oct-12 23:33N 34°45' E 119°24'0 0.0
2014-Oct-12 22:33N 34°45' E 119°24'0 0.0
2014-Oct-12 21:33N 34°45' E 119°24'0 0.0
2014-Oct-12 20:33N 34°45' E 119°24'0 0.0
2014-Oct-12 19:33N 34°45' E 119°24'0 0.0
2014-Oct-12 18:33N 34°45' E 119°24'0 0.0
2014-Oct-12 17:33N 34°45' E 119°24'0 0.0
2014-Oct-12 16:33N 34°45' E 119°24'0 0.0
2014-Oct-12 15:33N 34°45' E 119°24'0 0.0
2014-Oct-12 14:33N 34°45' E 119°24'0 0.0
2014-Oct-12 13:27N 34°45' E 119°24'0 0.0
2014-Oct-12 12:33N 34°45' E 119°24'0 0.0
2014-Oct-12 11:27N 34°45' E 119°24'0 0.0
2014-Oct-12 10:33N 34°45' E 119°24'0 0.0
2014-Oct-12 09:33N 34°45' E 119°24'0 0.0
2014-Oct-12 08:33N 34°45' E 119°24'0 0.0
2014-Oct-12 07:33N 34°45' E 119°24'0 0.0
2014-Oct-12 06:33N 34°45' E 119°24'0 0.0
2014-Oct-12 05:27N 34°45' E 119°24'0 0.0
2014-Oct-12 04:33N 34°45' E 119°24'0 0.0
2014-Oct-12 03:33N 34°45' E 119°24'0 0.0
2014-Oct-12 02:33N 34°45' E 119°24'0 0.0
2014-Oct-12 01:27N 34°45' E 119°24'0 0.0
2014-Oct-12 00:33N 34°45' E 119°24'0 0.0
2014-Oct-11 23:33N 34°45' E 119°24'0 0.0
2014-Oct-11 22:33N 34°45' E 119°24'0 0.0
2014-Oct-11 21:33N 34°45' E 119°24'0 0.0
2014-Oct-11 20:27N 34°45' E 119°24'0 0.0
2014-Oct-11 19:33N 34°45' E 119°24'0 0.0
2014-Oct-11 18:33N 34°45' E 119°24'0 0.0
2014-Oct-11 17:33N 34°45' E 119°24'0 0.0
2014-Oct-11 16:33N 34°45' E 119°24'0 0.0
2014-Oct-11 15:27N 34°45' E 119°24'0 0.0
2014-Oct-11 14:33N 34°45' E 119°24'7 6.5
2014-Oct-11 13:33N 34°45' E 119°32'35 2.2
2014-Oct-10 21:30N 35°03' E 120°10'6 1.4
2014-Oct-10 17:03N 34°59' E 120°15'1510.0
2014-Oct-10 15:33N 34°56' E 119°57'1110.9
2014-Oct-10 14:31N 34°51' E 119°45'1110.9
2014-Oct-10 13:33N 34°46' E 119°34'6 5.3
2014-Oct-10 12:30N 34°44' E 119°27'0 0.0
2014-Oct-10 11:24N 34°44' E 119°27'0 0.0
2014-Oct-10 10:30N 34°44' E 119°27'0 0.0
2014-Oct-10 09:30N 34°44' E 119°27'0 0.0
2014-Oct-10 08:30N 34°44' E 119°27'0 0.0
2014-Oct-10 07:30N 34°44' E 119°27'0 0.0
2014-Oct-10 06:30N 34°44' E 119°27'0 0.0
2014-Oct-10 05:30N 34°44' E 119°27'0 0.0
2014-Oct-10 04:30N 34°44' E 119°27'0 0.0
2014-Oct-10 03:30N 34°44' E 119°27'0 0.0
2014-Oct-10 02:30N 34°44' E 119°27'0 0.0
2014-Oct-10 01:24N 34°44' E 119°27'0 0.0
2014-Oct-10 00:24N 34°44' E 119°27'0 0.0
2014-Oct-09 23:24N 34°44' E 119°27'0 0.0
2014-Oct-09 22:30N 34°44' E 119°27'0 0.0
2014-Oct-09 21:30N 34°44' E 119°27'0 0.0
2014-Oct-09 20:30N 34°44' E 119°27'0 0.0
2014-Oct-09 19:30N 34°44' E 119°27'0 0.0
2014-Oct-09 18:30N 34°44' E 119°27'0 0.0
2014-Oct-09 17:24N 34°44' E 119°27'0 0.0
2014-Oct-09 16:30N 34°44' E 119°27'0 0.0
2014-Oct-09 15:30N 34°44' E 119°27'0 0.0
2014-Oct-09 14:30N 34°44' E 119°27'0 0.0
2014-Oct-09 13:30N 34°44' E 119°27'0 0.0
2014-Oct-09 12:24N 34°44' E 119°27'0 0.0
2014-Oct-09 11:24N 34°44' E 119°27'0 0.0
2014-Oct-09 10:30N 34°44' E 119°27'0 0.0
2014-Oct-09 09:30N 34°44' E 119°27'0 0.0
2014-Oct-09 08:30N 34°44' E 119°27'0 0.0
2014-Oct-09 07:30N 34°44' E 119°27'0 0.0
2014-Oct-09 06:30N 34°44' E 119°27'0 0.0
2014-Oct-09 05:30N 34°44' E 119°27'0 0.0
2014-Oct-09 04:24N 34°44' E 119°27'0 0.0
2014-Oct-09 03:30N 34°44' E 119°27'0 0.0
2014-Oct-09 02:30N 34°44' E 119°27'0 0.0
2014-Oct-09 01:30N 34°44' E 119°27'0 0.0
2014-Oct-09 00:30N 34°44' E 119°27'0 0.0
2014-Oct-08 23:30N 34°44' E 119°27'0 0.0
2014-Oct-08 22:30N 34°44' E 119°27'0 0.0
2014-Oct-08 21:30N 34°44' E 119°27'0 0.0
2014-Oct-08 20:30N 34°44' E 119°27'0 0.0
2014-Oct-08 19:30N 34°44' E 119°27'0 0.0
2014-Oct-08 18:30N 34°44' E 119°27'0 0.0
2014-Oct-08 17:30N 34°44' E 119°27'0 0.0
2014-Oct-08 16:24N 34°44' E 119°27'0 0.0
2014-Oct-08 15:30N 34°44' E 119°27'0 0.0
2014-Oct-08 14:24N 34°44' E 119°27'0 0.0
2014-Oct-08 13:30N 34°44' E 119°27'0 0.0
2014-Oct-08 12:24N 34°44' E 119°27'0 0.0
2014-Oct-08 11:30N 34°44' E 119°27'0 0.0
2014-Oct-08 10:30N 34°44' E 119°27'0 0.0
2014-Oct-08 09:30N 34°44' E 119°27'0 0.0
2014-Oct-08 08:30N 34°44' E 119°27'0 0.0
2014-Oct-08 07:24N 34°44' E 119°27'0 0.0
2014-Oct-08 06:30N 34°44' E 119°27'0 0.0
2014-Oct-08 05:24N 34°44' E 119°27'0 0.0
2014-Oct-08 04:24N 34°44' E 119°27'0 0.0
2014-Oct-08 03:18N 34°44' E 119°27'0 0.0
2014-Oct-08 02:30N 34°44' E 119°27'0 0.0
2014-Oct-08 01:30N 34°44' E 119°27'0 0.0
2014-Oct-08 00:24N 34°44' E 119°27'0 0.0
2014-Oct-07 23:30N 34°44' E 119°27'0 0.0
2014-Oct-07 22:30N 34°44' E 119°27'0 0.0
2014-Oct-07 21:30N 34°44' E 119°27'0 0.0
2014-Oct-07 20:30N 34°44' E 119°27'0 0.0
2014-Oct-07 19:30N 34°44' E 119°27'0 0.0
2014-Oct-07 18:30N 34°44' E 119°27'0 0.0
2014-Oct-07 17:30N 34°44' E 119°27'0 0.0
2014-Oct-07 16:30N 34°44' E 119°27'0 0.0
2014-Oct-07 15:30N 34°44' E 119°27'0 0.0
2014-Oct-07 14:30N 34°44' E 119°27'0 0.0
2014-Oct-07 13:30N 34°44' E 119°27'0 0.0
2014-Oct-07 12:30N 34°44' E 119°27'0 0.0
2014-Oct-07 11:24N 34°44' E 119°27'0 0.0
2014-Oct-07 10:24N 34°44' E 119°27'0 0.0
2014-Oct-07 09:24N 34°44' E 119°27'0 0.0
2014-Oct-07 08:24N 34°44' E 119°27'0 0.0
2014-Oct-07 07:30N 34°44' E 119°27'0 0.0
2014-Oct-07 06:30N 34°44' E 119°27'0 0.0
2014-Oct-07 05:30N 34°44' E 119°27'0 0.0
2014-Oct-07 04:30N 34°44' E 119°27'0 0.0
2014-Oct-07 03:30N 34°44' E 119°27'0 0.0
2014-Oct-07 02:30N 34°44' E 119°27'0 0.0
2014-Oct-07 01:30N 34°44' E 119°27'0 0.0
2014-Oct-07 00:30N 34°44' E 119°27'0 0.0
2014-Oct-06 23:18N 34°44' E 119°27'0 0.0
2014-Oct-06 22:18N 34°44' E 119°27'0 0.0
2014-Oct-06 21:30N 34°44' E 119°27'0 0.0
2014-Oct-06 20:30N 34°44' E 119°27'0 0.0
2014-Oct-06 19:30N 34°44' E 119°27'0 0.0
2014-Oct-06 18:30N 34°44' E 119°27'0 0.0
2014-Oct-06 17:30N 34°44' E 119°27'0 0.0
2014-Oct-06 16:12N 34°44' E 119°27'0 0.0
2014-Oct-06 15:18N 34°44' E 119°27'0 0.0
2014-Oct-06 14:24N 34°44' E 119°27'0 0.0
2014-Oct-06 13:30N 34°44' E 119°27'0 0.0
2014-Oct-06 12:30N 34°44' E 119°27'0 0.0
2014-Oct-06 11:30N 34°44' E 119°27'0 0.0
2014-Oct-06 10:30N 34°44' E 119°27'0 0.0
2014-Oct-06 09:24N 34°44' E 119°27'0 0.0
2014-Oct-06 08:30N 34°44' E 119°27'0 0.0
2014-Oct-06 07:18N 34°44' E 119°27'0 0.0
2014-Oct-06 06:24N 34°44' E 119°27'0 0.0
2014-Oct-06 05:24N 34°44' E 119°27'0 0.0
2014-Oct-06 04:30N 34°44' E 119°27'0 0.0
2014-Oct-06 03:30N 34°44' E 119°27'0 0.0
2014-Oct-06 02:30N 34°44' E 119°27'0 0.0
2014-Oct-06 01:30N 34°44' E 119°27'0 0.0
2014-Oct-06 00:24N 34°44' E 119°27'0 0.0
2014-Oct-05 23:30N 34°44' E 119°27'0 0.0
2014-Oct-05 22:30N 34°44' E 119°27'0 0.0
2014-Oct-05 21:30N 34°44' E 119°27'0 0.0
2014-Oct-05 20:24N 34°44' E 119°27'0 0.0
2014-Oct-05 19:30N 34°44' E 119°27'0 0.0
2014-Oct-05 18:30N 34°44' E 119°27'0 0.0
2014-Oct-05 17:30N 34°44' E 119°27'0 0.0
2014-Oct-05 16:30N 34°44' E 119°27'0 0.0
2014-Oct-05 15:30N 34°44' E 119°27'0 0.0
2014-Oct-05 14:24N 34°44' E 119°27'0 0.0
2014-Oct-05 13:30N 34°44' E 119°27'0 0.0
2014-Oct-05 12:30N 34°44' E 119°27'0 0.0
2014-Oct-05 11:30N 34°44' E 119°27'0 0.0
2014-Oct-05 10:18N 34°44' E 119°27'0 0.0
2014-Oct-05 09:30N 34°44' E 119°27'0 0.0
2014-Oct-05 08:30N 34°44' E 119°27'0 0.0
2014-Oct-05 07:30N 34°44' E 119°27'0 0.0
2014-Oct-05 06:30N 34°44' E 119°27'0 0.0
2014-Oct-05 05:30N 34°44' E 119°27'0 0.0
2014-Oct-05 04:18N 34°44' E 119°27'0 0.0
2014-Oct-05 03:30N 34°44' E 119°27'0 0.0
2014-Oct-05 02:24N 34°44' E 119°27'0 0.0
2014-Oct-05 01:30N 34°44' E 119°27'0 0.0
2014-Oct-05 00:30N 34°44' E 119°27'0 0.0
2014-Oct-04 23:18N 34°44' E 119°27'0 0.0
2014-Oct-04 22:24N 34°44' E 119°27'0 0.0
2014-Oct-04 21:24N 34°44' E 119°27'0 0.0
2014-Oct-04 20:30N 34°44' E 119°27'0 0.0
2014-Oct-04 19:30N 34°44' E 119°27'0 0.0
2014-Oct-04 18:30N 34°44' E 119°27'0 0.0
2014-Oct-04 17:30N 34°44' E 119°27'0 0.0
2014-Oct-04 16:24N 34°44' E 119°27'0 0.0
2014-Oct-04 15:24N 34°44' E 119°27'0 0.4
2014-Oct-04 14:33N 34°45' E 119°27'9 8.7
2014-Oct-04 13:33N 34°48' E 119°37'7 6.9
2014-Oct-04 12:33N 34°51' E 119°45'4 3.9
2014-Oct-04 11:25N 34°54' E 119°48'0 0.0
2014-Oct-04 10:13N 34°54' E 119°48'0 0.0
2014-Oct-04 09:19N 34°54' E 119°48'0 0.1
2014-Oct-04 07:07N 34°54' E 119°48'0 0.1
2014-Oct-04 06:25N 34°54' E 119°48'  
Track history (hours):
 
Tides and Currents Weather Stations Pressure Air Temp Water Temp Dewpoint Dewpoint Depression Visibility Wind Speed Wind Dir Waves Ship Positions

Crystal Island

Last reported at 2014-Oct-14 02:33 UTC. Time now 2014-Oct-22 04:50 UTC.
Position N 34°47' E 119°37'.
Warning: this ship's position is 8 days out of date.

Length 169 m; draft 9.2 m.

Type: Cargo ship. MMSI: 372562000.

Date/timePositionNaut miles runAvg speedWind from/ knotsBaromVisibWave heightAir tempDewpointWater temp
2014-Oct-14 02:33N 34°47' E 119°37'8 8.4
2014-Oct-14 01:33N 34°45' E 119°27'3 2.6
2014-Oct-14 00:33N 34°45' E 119°24'0 0.0
2014-Oct-13 23:27N 34°45' E 119°24'0 0.0
2014-Oct-13 22:33N 34°45' E 119°24'0 0.0
2014-Oct-13 21:33N 34°45' E 119°24'0 0.0
2014-Oct-13 20:33N 34°45' E 119°24'0 0.0
2014-Oct-13 19:33N 34°45' E 119°24'0 0.0
2014-Oct-13 18:33N 34°45' E 119°24'0 0.0
2014-Oct-13 17:33N 34°45' E 119°24'0 0.0
2014-Oct-13 16:33N 34°45' E 119°24'0 0.0
2014-Oct-13 15:33N 34°45' E 119°24'0 0.0
2014-Oct-13 14:33N 34°45' E 119°24'0 0.0
2014-Oct-13 13:33N 34°45' E 119°24'0 0.0
2014-Oct-13 12:33N 34°45' E 119°24'0 0.0
2014-Oct-13 11:27N 34°45' E 119°24'0 0.0
2014-Oct-13 10:33N 34°45' E 119°24'0 0.0
2014-Oct-13 09:33N 34°45' E 119°24'0 0.0
2014-Oct-13 08:33N 34°45' E 119°24'0 0.0
2014-Oct-13 07:33N 34°45' E 119°24'0 0.0
2014-Oct-13 06:33N 34°45' E 119°24'0 0.0
2014-Oct-13 05:27N 34°45' E 119°24'0 0.0
2014-Oct-13 04:33N 34°45' E 119°24'0 0.0
2014-Oct-13 03:33N 34°45' E 119°24'0 0.0
2014-Oct-13 02:33N 34°45' E 119°24'0 0.0
2014-Oct-13 01:33N 34°45' E 119°24'0 0.0
2014-Oct-13 00:33N 34°45' E 119°24'0 0.0
2014-Oct-12 23:33N 34°45' E 119°24'0 0.0
2014-Oct-12 22:33N 34°45' E 119°24'0 0.0
2014-Oct-12 21:33N 34°45' E 119°24'0 0.0
2014-Oct-12 20:33N 34°45' E 119°24'0 0.0
2014-Oct-12 19:33N 34°45' E 119°24'0 0.0
2014-Oct-12 18:33N 34°45' E 119°24'0 0.0
2014-Oct-12 17:33N 34°45' E 119°24'0 0.0
2014-Oct-12 16:33N 34°45' E 119°24'0 0.0
2014-Oct-12 15:33N 34°45' E 119°24'0 0.0
2014-Oct-12 14:33N 34°45' E 119°24'0 0.0
2014-Oct-12 13:27N 34°45' E 119°24'0 0.0
2014-Oct-12 12:33N 34°45' E 119°24'0 0.0
2014-Oct-12 11:27N 34°45' E 119°24'0 0.0
2014-Oct-12 10:33N 34°45' E 119°24'0 0.0
2014-Oct-12 09:33N 34°45' E 119°24'0 0.0
2014-Oct-12 08:33N 34°45' E 119°24'0 0.0
2014-Oct-12 07:33N 34°45' E 119°24'0 0.0
2014-Oct-12 06:33N 34°45' E 119°24'0 0.0
2014-Oct-12 05:27N 34°45' E 119°24'0 0.0
2014-Oct-12 04:33N 34°45' E 119°24'0 0.0
2014-Oct-12 03:33N 34°45' E 119°24'0 0.0
2014-Oct-12 02:33N 34°45' E 119°24'0 0.0
2014-Oct-12 01:27N 34°45' E 119°24'0 0.0
2014-Oct-12 00:33N 34°45' E 119°24'0 0.0
2014-Oct-11 23:33N 34°45' E 119°24'0 0.0
2014-Oct-11 22:33N 34°45' E 119°24'0 0.0
2014-Oct-11 21:33N 34°45' E 119°24'0 0.0
2014-Oct-11 20:27N 34°45' E 119°24'0 0.0
2014-Oct-11 19:33N 34°45' E 119°24'0 0.0
2014-Oct-11 18:33N 34°45' E 119°24'0 0.0
2014-Oct-11 17:33N 34°45' E 119°24'0 0.0
2014-Oct-11 16:33N 34°45' E 119°24'0 0.0
2014-Oct-11 15:27N 34°45' E 119°24'0 0.0
2014-Oct-11 14:33N 34°45' E 119°24'7 6.5
2014-Oct-11 13:33N 34°45' E 119°32'35 2.2
2014-Oct-10 21:30N 35°03' E 120°10'6 1.4
2014-Oct-10 17:03N 34°59' E 120°15'1510.0
2014-Oct-10 15:33N 34°56' E 119°57'1110.9
2014-Oct-10 14:31N 34°51' E 119°45'1110.9
2014-Oct-10 13:33N 34°46' E 119°34'6 5.3
2014-Oct-10 12:30N 34°44' E 119°27'0 0.0
2014-Oct-10 11:24N 34°44' E 119°27'0 0.0
2014-Oct-10 10:30N 34°44' E 119°27'0 0.0
2014-Oct-10 09:30N 34°44' E 119°27'0 0.0
2014-Oct-10 08:30N 34°44' E 119°27'0 0.0
2014-Oct-10 07:30N 34°44' E 119°27'0 0.0
2014-Oct-10 06:30N 34°44' E 119°27'0 0.0
2014-Oct-10 05:30N 34°44' E 119°27'0 0.0
2014-Oct-10 04:30N 34°44' E 119°27'0 0.0
2014-Oct-10 03:30N 34°44' E 119°27'0 0.0
2014-Oct-10 02:30N 34°44' E 119°27'0 0.0
2014-Oct-10 01:24N 34°44' E 119°27'0 0.0
2014-Oct-10 00:24N 34°44' E 119°27'0 0.0
2014-Oct-09 23:24N 34°44' E 119°27'0 0.0
2014-Oct-09 22:30N 34°44' E 119°27'0 0.0
2014-Oct-09 21:30N 34°44' E 119°27'0 0.0
2014-Oct-09 20:30N 34°44' E 119°27'0 0.0
2014-Oct-09 19:30N 34°44' E 119°27'0 0.0
2014-Oct-09 18:30N 34°44' E 119°27'0 0.0
2014-Oct-09 17:24N 34°44' E 119°27'0 0.0
2014-Oct-09 16:30N 34°44' E 119°27'0 0.0
2014-Oct-09 15:30N 34°44' E 119°27'0 0.0
2014-Oct-09 14:30N 34°44' E 119°27'0 0.0
2014-Oct-09 13:30N 34°44' E 119°27'0 0.0
2014-Oct-09 12:24N 34°44' E 119°27'0 0.0
2014-Oct-09 11:24N 34°44' E 119°27'0 0.0
2014-Oct-09 10:30N 34°44' E 119°27'0 0.0
2014-Oct-09 09:30N 34°44' E 119°27'0 0.0
2014-Oct-09 08:30N 34°44' E 119°27'0 0.0
2014-Oct-09 07:30N 34°44' E 119°27'0 0.0
2014-Oct-09 06:30N 34°44' E 119°27'0 0.0
2014-Oct-09 05:30N 34°44' E 119°27'0 0.0
2014-Oct-09 04:24N 34°44' E 119°27'0 0.0
2014-Oct-09 03:30N 34°44' E 119°27'0 0.0
2014-Oct-09 02:30N 34°44' E 119°27'0 0.0
2014-Oct-09 01:30N 34°44' E 119°27'0 0.0
2014-Oct-09 00:30N 34°44' E 119°27'0 0.0
2014-Oct-08 23:30N 34°44' E 119°27'0 0.0
2014-Oct-08 22:30N 34°44' E 119°27'0 0.0
2014-Oct-08 21:30N 34°44' E 119°27'0 0.0
2014-Oct-08 20:30N 34°44' E 119°27'0 0.0
2014-Oct-08 19:30N 34°44' E 119°27'0 0.0
2014-Oct-08 18:30N 34°44' E 119°27'0 0.0
2014-Oct-08 17:30N 34°44' E 119°27'0 0.0
2014-Oct-08 16:24N 34°44' E 119°27'0 0.0
2014-Oct-08 15:30N 34°44' E 119°27'0 0.0
2014-Oct-08 14:24N 34°44' E 119°27'0 0.0
2014-Oct-08 13:30N 34°44' E 119°27'0 0.0
2014-Oct-08 12:24N 34°44' E 119°27'0 0.0
2014-Oct-08 11:30N 34°44' E 119°27'0 0.0
2014-Oct-08 10:30N 34°44' E 119°27'0 0.0
2014-Oct-08 09:30N 34°44' E 119°27'0 0.0
2014-Oct-08 08:30N 34°44' E 119°27'0 0.0
2014-Oct-08 07:24N 34°44' E 119°27'0 0.0
2014-Oct-08 06:30N 34°44' E 119°27'0 0.0
2014-Oct-08 05:24N 34°44' E 119°27'0 0.0
2014-Oct-08 04:24N 34°44' E 119°27'0 0.0
2014-Oct-08 03:18N 34°44' E 119°27'0 0.0
2014-Oct-08 02:30N 34°44' E 119°27'0 0.0
2014-Oct-08 01:30N 34°44' E 119°27'0 0.0
2014-Oct-08 00:24N 34°44' E 119°27'0 0.0
2014-Oct-07 23:30N 34°44' E 119°27'0 0.0
2014-Oct-07 22:30N 34°44' E 119°27'0 0.0
2014-Oct-07 21:30N 34°44' E 119°27'0 0.0
2014-Oct-07 20:30N 34°44' E 119°27'0 0.0
2014-Oct-07 19:30N 34°44' E 119°27'0 0.0
2014-Oct-07 18:30N 34°44' E 119°27'0 0.0
2014-Oct-07 17:30N 34°44' E 119°27'0 0.0
2014-Oct-07 16:30N 34°44' E 119°27'0 0.0
2014-Oct-07 15:30N 34°44' E 119°27'0 0.0
2014-Oct-07 14:30N 34°44' E 119°27'0 0.0
2014-Oct-07 13:30N 34°44' E 119°27'0 0.0
2014-Oct-07 12:30N 34°44' E 119°27'0 0.0
2014-Oct-07 11:24N 34°44' E 119°27'0 0.0
2014-Oct-07 10:24N 34°44' E 119°27'0 0.0
2014-Oct-07 09:24N 34°44' E 119°27'0 0.0
2014-Oct-07 08:24N 34°44' E 119°27'0 0.0
2014-Oct-07 07:30N 34°44' E 119°27'0 0.0
2014-Oct-07 06:30N 34°44' E 119°27'0 0.0
2014-Oct-07 05:30N 34°44' E 119°27'0 0.0
2014-Oct-07 04:30N 34°44' E 119°27'0 0.0
2014-Oct-07 03:30N 34°44' E 119°27'0 0.0
2014-Oct-07 02:30N 34°44' E 119°27'0 0.0
2014-Oct-07 01:30N 34°44' E 119°27'0 0.0
2014-Oct-07 00:30N 34°44' E 119°27'0 0.0
2014-Oct-06 23:18N 34°44' E 119°27'0 0.0
2014-Oct-06 22:18N 34°44' E 119°27'0 0.0
2014-Oct-06 21:30N 34°44' E 119°27'0 0.0
2014-Oct-06 20:30N 34°44' E 119°27'0 0.0
2014-Oct-06 19:30N 34°44' E 119°27'0 0.0
2014-Oct-06 18:30N 34°44' E 119°27'0 0.0
2014-Oct-06 17:30N 34°44' E 119°27'0 0.0
2014-Oct-06 16:12N 34°44' E 119°27'0 0.0
2014-Oct-06 15:18N 34°44' E 119°27'0 0.0
2014-Oct-06 14:24N 34°44' E 119°27'0 0.0
2014-Oct-06 13:30N 34°44' E 119°27'0 0.0
2014-Oct-06 12:30N 34°44' E 119°27'0 0.0
2014-Oct-06 11:30N 34°44' E 119°27'0 0.0
2014-Oct-06 10:30N 34°44' E 119°27'0 0.0
2014-Oct-06 09:24N 34°44' E 119°27'0 0.0
2014-Oct-06 08:30N 34°44' E 119°27'0 0.0
2014-Oct-06 07:18N 34°44' E 119°27'0 0.0
2014-Oct-06 06:24N 34°44' E 119°27'0 0.0
2014-Oct-06 05:24N 34°44' E 119°27'0 0.0
2014-Oct-06 04:30N 34°44' E 119°27'0 0.0
2014-Oct-06 03:30N 34°44' E 119°27'0 0.0
2014-Oct-06 02:30N 34°44' E 119°27'0 0.0
2014-Oct-06 01:30N 34°44' E 119°27'0 0.0
2014-Oct-06 00:24N 34°44' E 119°27'0 0.0
2014-Oct-05 23:30N 34°44' E 119°27'0 0.0
2014-Oct-05 22:30N 34°44' E 119°27'0 0.0
2014-Oct-05 21:30N 34°44' E 119°27'0 0.0
2014-Oct-05 20:24N 34°44' E 119°27'0 0.0
2014-Oct-05 19:30N 34°44' E 119°27'0 0.0
2014-Oct-05 18:30N 34°44' E 119°27'0 0.0
2014-Oct-05 17:30N 34°44' E 119°27'0 0.0
2014-Oct-05 16:30N 34°44' E 119°27'0 0.0
2014-Oct-05 15:30N 34°44' E 119°27'0 0.0
2014-Oct-05 14:24N 34°44' E 119°27'0 0.0
2014-Oct-05 13:30N 34°44' E 119°27'0 0.0
2014-Oct-05 12:30N 34°44' E 119°27'0 0.0
2014-Oct-05 11:30N 34°44' E 119°27'0 0.0
2014-Oct-05 10:18N 34°44' E 119°27'0 0.0
2014-Oct-05 09:30N 34°44' E 119°27'0 0.0
2014-Oct-05 08:30N 34°44' E 119°27'0 0.0
2014-Oct-05 07:30N 34°44' E 119°27'0 0.0
2014-Oct-05 06:30N 34°44' E 119°27'0 0.0
2014-Oct-05 05:30N 34°44' E 119°27'0 0.0
2014-Oct-05 04:18N 34°44' E 119°27'0 0.0
2014-Oct-05 03:30N 34°44' E 119°27'0 0.0
2014-Oct-05 02:24N 34°44' E 119°27'0 0.0
2014-Oct-05 01:30N 34°44' E 119°27'0 0.0
2014-Oct-05 00:30N 34°44' E 119°27'0 0.0
2014-Oct-04 23:18N 34°44' E 119°27'0 0.0
2014-Oct-04 22:24N 34°44' E 119°27'0 0.0
2014-Oct-04 21:24N 34°44' E 119°27'0 0.0
2014-Oct-04 20:30N 34°44' E 119°27'0 0.0
2014-Oct-04 19:30N 34°44' E 119°27'0 0.0
2014-Oct-04 18:30N 34°44' E 119°27'0 0.0
2014-Oct-04 17:30N 34°44' E 119°27'0 0.0
2014-Oct-04 16:24N 34°44' E 119°27'0 0.0
2014-Oct-04 15:24N 34°44' E 119°27'0 0.4
2014-Oct-04 14:33N 34°45' E 119°27'9 8.7
2014-Oct-04 13:33N 34°48' E 119°37'7 6.9
2014-Oct-04 12:33N 34°51' E 119°45'4 3.9
2014-Oct-04 11:25N 34°54' E 119°48'0 0.0
2014-Oct-04 10:13N 34°54' E 119°48'0 0.0
2014-Oct-04 09:19N 34°54' E 119°48'0 0.1
2014-Oct-04 07:07N 34°54' E 119°48'0 0.1
2014-Oct-04 06:25N 34°54' E 119°48'  

Dump ship's entire track history